Time;durP1;ratioP1;P1;durP2;ratioP2;P2;SDS_P1;SDS_P2;PMS_P1;PMS_P2;Temp;Humidity;BMP_temperature;BMP_pressure;BME280_temperature;BME280_humidity;BME280_pressure;Samples;Min_cycle;Max_cycle;Signal;HPM_P1;HPM_P2
2021/04/27 00:08:25;;;;;;;6.55;4.32;;;;;;;18.73;34.04;101202.66;30979850;28;20298;-56
2021/04/27 00:23:26;;;;;;;5.57;4.22;;;;;;;18.66;33.80;101203.25;30989243;28;20400;-57
2021/04/27 00:38:27;;;;;;;6.10;4.55;;;;;;;18.56;34.53;101192.59;30973236;28;20098;-59
2021/04/27 00:53:28;;;;;;;5.67;4.07;;;;;;;18.49;34.44;101183.50;30994596;28;20052;-54
2021/04/27 01:08:32;;;;;;;6.78;4.03;;;;;;;18.43;33.91;101175.06;31009081;28;20340;-57
2021/04/27 01:23:55;;;;;;;7.05;4.40;;;;;;;18.39;34.44;101167.53;31006372;28;20045;-56
2021/04/27 01:38:56;;;;;;;5.75;3.65;;;;;;;18.35;34.09;101155.59;31010373;28;20047;-57
2021/04/27 01:53:57;;;;;;;5.60;3.90;;;;;;;18.29;34.64;101156.88;31005038;28;20403;-56
2021/04/27 02:09:10;;;;;;;5.37;3.70;;;;;;;18.29;34.37;101153.41;31015476;28;20293;-55
2021/04/27 02:24:11;;;;;;;4.97;3.60;;;;;;;18.25;33.69;101141.44;30991118;28;20694;-55
2021/04/27 02:39:12;;;;;;;5.33;3.53;;;;;;;18.22;33.74;101134.63;30989689;28;20500;-59
2021/04/27 02:54:13;;;;;;;5.70;3.50;;;;;;;18.19;33.91;101122.53;30990141;28;20301;-56
2021/04/27 03:09:14;;;;;;;6.13;3.70;;;;;;;18.16;34.64;101127.19;30990253;28;20779;-56
2021/04/27 03:24:15;;;;;;;6.27;3.73;;;;;;;18.14;33.81;101122.06;30988597;28;20309;-57
2021/04/27 03:39:16;;;;;;;5.40;3.55;;;;;;;18.11;33.83;101118.81;30987171;28;20289;-56
2021/04/27 03:54:17;;;;;;;4.30;3.13;;;;;;;18.09;33.91;101113.66;30988763;28;20381;-56
2021/04/27 04:09:18;;;;;;;4.87;3.00;;;;;;;18.07;33.91;101123.44;30990332;28;20297;-58
2021/04/27 04:24:19;;;;;;;5.63;3.30;;;;;;;18.08;33.53;101126.94;30988963;28;20699;-59
2021/04/27 04:39:20;;;;;;;4.30;3.13;;;;;;;18.07;33.61;101139.22;31010859;28;20303;-58
2021/04/27 04:54:21;;;;;;;4.53;3.00;;;;;;;18.10;33.63;101133.75;31010896;28;20691;-58
2021/04/27 05:09:22;;;;;;;5.53;3.22;;;;;;;18.10;33.47;101139.00;31007515;28;20289;-54
2021/04/27 05:24:23;;;;;;;4.30;2.93;;;;;;;18.11;33.66;101139.84;31008030;28;20124;-54
2021/04/27 05:39:24;;;;;;;4.40;2.72;;;;;;;18.11;33.37;101140.69;31015105;28;20293;-56
2021/04/27 05:54:25;;;;;;;4.87;2.77;;;;;;;18.13;33.27;101137.94;31003783;28;20045;-57
2021/04/27 06:09:26;;;;;;;4.83;2.60;;;;;;;18.13;33.19;101138.78;30984030;28;20296;-57
2021/04/27 06:24:27;;;;;;;6.80;2.90;;;;;;;17.07;25.79;101132.50;30991489;28;20293;-59
2021/04/27 06:39:28;;;;;;;7.82;3.20;;;;;;;14.94;25.97;101142.16;30978561;28;20294;-59
2021/04/27 06:54:29;;;;;;;15.85;2.72;;;;;;;14.90;26.45;101145.88;30979803;28;20064;-56
2021/04/27 07:09:30;;;;;;;3.83;2.30;;;;;;;15.55;25.39;101133.03;30979005;28;20034;-55
2021/04/27 07:24:31;;;;;;;3.83;1.73;;;;;;;16.90;27.24;101142.38;30973970;28;20034;-57
2021/04/27 07:39:32;;;;;;;3.22;1.65;;;;;;;17.80;27.17;101131.59;30963963;28;20051;-58
2021/04/27 07:54:33;;;;;;;3.42;1.70;;;;;;;18.16;26.94;101138.56;30966623;28;20504;-57
2021/04/27 08:09:34;;;;;;;3.97;2.30;;;;;;;18.77;27.57;101122.50;30975025;28;20029;-54
2021/04/27 08:24:35;;;;;;;5.70;2.60;;;;;;;19.23;27.69;101118.00;30978006;28;20654;-56
2021/04/27 08:39:36;;;;;;;5.63;2.67;;;;;;;19.67;27.74;101119.66;30962520;28;20298;-57
2021/04/27 08:54:37;;;;;;;3.47;2.20;;;;;;;20.09;27.78;101111.81;30970264;28;20026;-55
2021/04/27 09:09:46;;;;;;;7.07;3.60;;;;;;;20.33;26.61;101091.41;30979184;28;20031;-57
2021/04/27 09:24:57;;;;;;;6.72;3.47;;;;;;;20.50;26.77;101078.44;31019423;28;20354;-61
2021/04/27 09:39:58;;;;;;;6.82;4.00;;;;;;;20.64;26.77;101056.13;30976131;28;20063;-57
2021/04/27 09:55:07;;;;;;;6.33;4.47;;;;;;;20.87;26.67;101046.19;30997491;28;20046;-57
2021/04/27 10:10:10;;;;;;;6.97;4.68;;;;;;;21.10;26.64;101038.84;30984477;28;20293;-57
2021/04/27 10:25:20;;;;;;;8.65;5.70;;;;;;;21.05;26.64;101017.28;30987786;28;20467;-57
2021/04/27 10:40:40;;;;;;;9.20;6.75;;;;;;;21.33;27.07;100997.13;30988681;28;20096;-52
2021/04/27 10:55:51;;;;;;;9.68;6.50;;;;;;;21.47;27.76;100977.38;30960140;28;20022;-54
2021/04/27 11:10:52;;;;;;;11.02;6.80;;;;;;;21.41;27.85;100959.41;30972756;28;20034;-58
2021/04/27 11:25:53;;;;;;;12.63;7.10;;;;;;;21.47;27.54;100929.78;30987676;28;20030;-58
2021/04/27 11:40:54;;;;;;;10.47;6.93;;;;;;;21.57;29.00;100923.63;30975152;28;20788;-62
2021/04/27 11:55:55;;;;;;;10.03;5.97;;;;;;;21.68;29.75;100907.59;30973751;28;20293;-58
2021/04/27 12:11:08;;;;;;;10.18;6.55;;;;;;;21.68;30.27;100897.81;30975319;28;20632;-60
2021/04/27 12:26:09;;;;;;;10.25;6.22;;;;;;;21.70;30.58;100871.25;30988936;28;20026;-58
2021/04/27 12:41:10;;;;;;;10.60;5.70;;;;;;;21.63;31.09;100856.94;30962651;28;20059;-58
2021/04/27 12:56:15;;;;;;;10.07;6.03;;;;;;;21.55;30.98;100844.41;31005473;28;20028;-60
2021/04/27 13:11:22;;;;;;;8.27;5.73;;;;;;;21.44;31.69;100831.38;30986886;28;20297;-61
2021/04/27 13:26:23;;;;;;;8.85;5.53;;;;;;;21.31;31.92;100799.94;31006805;28;20038;-62
2021/04/27 13:41:26;;;;;;;7.90;5.70;;;;;;;21.15;32.59;100768.00;30995218;28;20047;-58
2021/04/27 13:56:26;;;;;;;11.05;5.63;;;;;;;20.97;33.02;100750.25;30988869;28;20774;-59
2021/04/27 14:11:27;;;;;;;9.17;5.33;;;;;;;20.83;33.20;100729.59;31005700;28;20038;-59
2021/04/27 14:26:28;;;;;;;10.77;6.70;;;;;;;20.62;32.95;100727.13;30990041;28;20282;-59
2021/04/27 14:41:29;;;;;;;9.67;5.97;;;;;;;20.52;33.70;100705.97;30983685;28;20301;-60
2021/04/27 14:56:30;;;;;;;10.17;6.30;;;;;;;20.39;34.62;100690.44;30984506;28;20293;-60
2021/04/27 15:11:32;;;;;;;9.60;5.72;;;;;;;20.28;34.49;100674.75;30995595;28;20351;-59
2021/04/27 15:26:34;;;;;;;9.05;5.35;;;;;;;20.19;34.61;100667.69;30989730;28;20042;-62
2021/04/27 15:41:36;;;;;;;7.53;5.43;;;;;;;20.05;34.81;100658.41;31015072;28;20038;-57
2021/04/27 15:56:37;;;;;;;7.80;5.50;;;;;;;19.93;35.18;100646.28;30977270;28;20038;-60
2021/04/27 16:11:38;;;;;;;7.15;5.35;;;;;;;19.83;34.12;100639.22;30986522;28;20034;-58
2021/04/27 16:26:39;;;;;;;9.00;5.77;;;;;;;19.74;33.67;100637.41;30996456;28;20038;-58
2021/04/27 16:41:40;;;;;;;7.80;5.20;;;;;;;19.70;33.93;100622.88;30990253;28;20667;-62
2021/04/27 16:56:41;;;;;;;7.32;4.93;;;;;;;19.64;34.08;100616.28;30996944;28;20274;-61
2021/04/27 17:11:42;;;;;;;6.97;4.80;;;;;;;19.58;34.10;100608.09;30985954;28;20041;-60
2021/04/27 17:26:43;;;;;;;9.33;5.53;;;;;;;19.47;33.55;100606.44;30991782;28;20640;-57
2021/04/27 17:41:44;;;;;;;7.30;5.23;;;;;;;19.34;33.68;100611.13;30994181;28;20298;-57
2021/04/27 17:56:45;;;;;;;8.57;4.50;;;;;;;19.19;33.87;100624.69;30999166;28;20355;-57
2021/04/27 18:11:47;;;;;;;8.37;3.73;;;;;;;18.79;26.28;100622.06;31000828;28;20404;-58
2021/04/27 18:26:47;;;;;;;8.13;4.03;;;;;;;17.53;23.64;100635.97;30956755;28;20356;-56
2021/04/27 18:41:48;;;;;;;8.13;3.83;;;;;;;17.77;27.47;100634.91;31005449;28;20054;-58
2021/04/27 18:56:49;;;;;;;8.20;4.25;;;;;;;18.54;27.83;100647.00;30979000;28;20412;-59
2021/04/27 19:11:50;;;;;;;5.57;3.47;;;;;;;19.15;29.05;100652.28;30950551;28;20065;-56
2021/04/27 19:26:51;;;;;;;6.87;3.83;;;;;;;19.54;29.21;100647.09;30906412;28;20298;-58
2021/04/27 19:41:52;;;;;;;7.07;4.33;;;;;;;19.71;27.91;100656.16;30925872;28;20300;-59
2021/04/27 19:56:53;;;;;;;7.37;3.80;;;;;;;19.83;28.99;100652.41;30967653;28;20289;-60
2021/04/27 20:11:54;;;;;;;7.60;3.70;;;;;;;19.90;28.85;100650.06;30889300;28;20301;-57
2021/04/27 20:26:55;;;;;;;6.05;3.42;;;;;;;19.90;29.33;100647.41;30892458;28;20317;-57
2021/04/27 20:41:57;;;;;;;6.43;3.53;;;;;;;19.87;29.61;100651.16;30886080;28;20035;-59
2021/04/27 20:56:58;;;;;;;5.78;3.47;;;;;;;19.90;30.17;100652.69;30933081;28;20294;-59
2021/04/27 21:12:07;;;;;;;8.50;3.97;;;;;;;19.93;30.49;100654.22;30973517;28;20057;-58
2021/04/27 21:27:08;;;;;;;5.22;3.50;;;;;;;19.97;30.32;100645.06;30979653;28;20046;-57
2021/04/27 21:42:09;;;;;;;5.78;3.78;;;;;;;20.04;30.61;100641.75;31003462;28;20558;-57
2021/04/27 21:57:10;;;;;;;7.40;4.10;;;;;;;19.83;29.02;100652.41;30984885;28;20034;-56
2021/04/27 22:12:11;;;;;;;7.00;4.70;;;;;;;19.50;27.17;100645.69;30992099;28;20116;-53
2021/04/27 22:27:12;;;;;;;5.83;3.87;;;;;;;19.34;28.28;100640.94;30959925;28;20473;-55
2021/04/27 22:42:13;;;;;;;6.30;4.23;;;;;;;19.29;28.66;100631.75;30995794;28;20304;-57
2021/04/27 22:57:14;;;;;;;5.00;3.40;;;;;;;19.24;29.16;100640.06;31010935;28;20736;-56
2021/04/27 23:12:15;;;;;;;6.43;4.43;;;;;;;19.19;29.95;100622.03;30996523;28;20380;-54
2021/04/27 23:27:16;;;;;;;5.93;3.90;;;;;;;19.11;30.21;100613.16;30996057;28;20806;-56
2021/04/27 23:42:17;;;;;;;6.82;4.47;;;;;;;19.02;30.58;100597.19;30994407;28;20293;-52
2021/04/27 23:57:18;;;;;;;7.03;4.23;;;;;;;18.94;30.58;100594.38;30993830;28;20037;-57
